Rosario del Tala, Argentina
Current Conditions -  °F | °C
As of 6:00 PM on Monday 22 Dec 2014 (Local Time) from SUSO Reporting Station
Few Clouds Few Clouds  
Wind Chill: 75°   Ceiling: Unl
Heat Index: 75°   Visibility: 6mi
Dew Point: 46°   Wind: 8mph
Humidity: 36%   Direction: 240°WSW
Pressure: 30.03"   Gusts: NA
Location:  32.3°S, 59.15°W
Report Text: SUSO 222100Z 24007KT 9999 FEW027 24/08 Q1017
Loading
Personal Weather Stations






























Interactive Weather Map New forecast layout! Learn more

10-Day Weather Forecast

Advertisements
Track Severe Weather on mobile